weather.gov     
National Weather Service

Terminal Aerodrome Forecast
NWS Homepage
This page is being discontinued on March 12, 2014.
The same data is available at this site. Please update your bookmarks.
Thank you, and we apologize for the inconvenience.
Please send an email to SR-SRH.Webmaster@noaa.gov with any concerns.


Current Version
Previous Version:    01  02  03  04  05  06  07  08  09  10  11  12  13  14  15  16  17  18  19  20  21  22  23  24  25  26  27  
[Printable]
342
FTAK31 PAFA 011138
TAFAFA
TAF
PAFA 011138Z 0112/0218 VRB03KT P6SM FEW050 BKN080
     FM012100 20005KT P6SM -SHRA SCT035 OVC060
     FM020000 21005KT 4SM RA BR BKN025 OVC040
     FM020300 22010KT 4SM -RA BR BKN012 OVC020 WS020/22040KT
     FM020900 24010KT 6SM -RA BR BKN012 OVC020=




342
FTAK31 PAFA 011138
TAFAFA
TAF
PAFA 011138Z 0112/0218 VRB03KT P6SM FEW050 BKN080
     FM012100 20005KT P6SM -SHRA SCT035 OVC060
     FM020000 21005KT 4SM RA BR BKN025 OVC040
     FM020300 22010KT 4SM -RA BR BKN012 OVC020 WS020/22040KT
     FM020900 24010KT 6SM -RA BR BKN012 OVC020=


U.S. Dept. of Commerce
NOAA National Weather Service
1325 East West Highway
Silver Spring, MD 20910
E-mail: w-nws.webmaster@noaa.gov
Page last modified: May 16, 2007
NATIONAL WEATHER SERVICE: for Safety, for Work, for Fun - FOR LIFE